Time;durP1;ratioP1;P1;durP2;ratioP2;P2;SDS_P1;SDS_P2;PMS_P1;PMS_P2;Temp;Humidity;BMP_temperature;BMP_pressure;BME280_temperature;BME280_humidity;BME280_pressure;Samples;Min_cycle;Max_cycle;Signal;HPM_P1;HPM_P2
2022/09/17 00:02:05;;;;;;;4.40;1.55;;;;;;;4.04;100.00;102142.50;5006874;28;20041;-76
2022/09/17 00:04:31;;;;;;;4.03;1.70;;;;;;;4.09;100.00;102148.38;5004175;28;20026;-76
2022/09/17 00:06:57;;;;;;;3.55;1.75;;;;;;;4.07;100.00;102140.47;5004552;28;20045;-78
2022/09/17 00:09:23;;;;;;;6.03;1.55;;;;;;;4.02;100.00;102139.06;4972270;28;20037;-77
2022/09/17 00:11:48;;;;;;;3.58;1.85;;;;;;;3.99;100.00;102145.44;4985068;28;20104;-77
2022/09/17 00:14:16;;;;;;;3.55;1.48;;;;;;;3.97;100.00;102150.88;4989139;28;21592;-76
2022/09/17 00:16:44;;;;;;;2.72;1.27;;;;;;;3.92;100.00;102157.47;4990254;28;20030;-76
2022/09/17 00:19:16;;;;;;;2.10;1.30;;;;;;;3.74;100.00;102132.88;4984798;28;20042;-76
2022/09/17 00:21:42;;;;;;;2.35;1.10;;;;;;;3.74;100.00;102133.72;4986259;28;20037;-76
2022/09/17 00:24:10;;;;;;;2.28;1.50;;;;;;;3.69;100.00;102148.28;4982436;28;20038;-76
2022/09/17 00:26:36;;;;;;;2.95;1.35;;;;;;;3.57;100.00;102147.22;4988209;28;20034;-77
2022/09/17 00:29:02;;;;;;;2.30;1.35;;;;;;;3.52;100.00;102150.19;5006313;28;20102;-77
2022/09/17 00:31:28;;;;;;;1.48;1.05;;;;;;;3.56;100.00;102150.00;4999719;28;20053;-76
2022/09/17 00:33:54;;;;;;;1.67;1.20;;;;;;;3.61;100.00;102146.09;5003660;28;20072;-77
2022/09/17 00:36:21;;;;;;;7.65;7.00;;;;;;;3.69;100.00;102159.75;4975023;28;20320;-76
2022/09/17 00:38:51;;;;;;;2.30;1.27;;;;;;;3.66;100.00;102151.13;5006282;28;20396;-76
2022/09/17 00:41:18;;;;;;;2.72;1.10;;;;;;;3.58;100.00;102148.97;5004865;28;20067;-76
2022/09/17 00:43:52;;;;;;;2.45;1.15;;;;;;;3.53;100.00;102157.22;5004742;28;20403;-77
2022/09/17 00:46:40;;;;;;;2.25;1.77;;;;;;;3.32;100.00;102120.47;5002829;28;20096;-76
2022/09/17 00:49:11;;;;;;;2.53;1.48;;;;;;;3.50;100.00;102152.09;5007069;28;20480;-76
2022/09/17 00:51:40;;;;;;;2.95;1.40;;;;;;;3.46;100.00;102141.72;4979503;28;20108;-76
2022/09/17 00:54:08;;;;;;;2.85;1.10;;;;;;;3.39;100.00;102143.09;4976038;28;20090;-78
2022/09/17 00:56:36;;;;;;;2.35;1.48;;;;;;;3.33;100.00;102148.75;5005037;28;20042;-77
2022/09/17 00:59:02;;;;;;;2.70;1.50;;;;;;;3.25;100.00;102146.56;4986609;28;20037;-77
2022/09/17 01:01:29;;;;;;;2.50;1.50;;;;;;;3.18;100.00;102154.09;4987494;28;20038;-77
2022/09/17 01:03:55;;;;;;;2.67;1.15;;;;;;;3.19;100.00;102152.28;5002908;28;20038;-76
2022/09/17 01:06:36;;;;;;;5.13;1.45;;;;;;;3.14;100.00;102135.75;5007411;28;20076;-76
2022/09/17 01:09:19;;;;;;;2.42;1.38;;;;;;;3.23;100.00;102148.50;5020063;28;20037;-76
2022/09/17 01:12:08;;;;;;;3.00;1.17;;;;;;;3.19;100.00;102144.31;4995990;28;20100;-76
2022/09/17 01:14:37;;;;;;;1.73;1.10;;;;;;;3.12;100.00;102140.28;4974146;28;20049;-76
2022/09/17 01:17:13;;;;;;;1.98;0.90;;;;;;;3.09;100.00;102138.69;5004529;28;20396;-77
2022/09/17 01:20:03;;;;;;;4.18;1.02;;;;;;;3.07;100.00;102141.44;5017435;28;20550;-76
2022/09/17 01:22:35;;;;;;;1.98;1.05;;;;;;;3.01;100.00;102149.78;5020575;28;20128;-77
2022/09/17 01:25:23;;;;;;;1.00;0.80;;;;;;;2.85;100.00;102122.44;5003552;28;20041;-76
2022/09/17 01:28:39;;;;;;;2.28;1.08;;;;;;;2.91;100.00;102143.34;4968527;28;20033;-76
2022/09/17 01:31:25;;;;;;;1.52;0.73;;;;;;;2.86;100.00;102148.91;4959574;28;20052;-76
2022/09/17 01:34:27;;;;;;;1.67;1.00;;;;;;;2.72;100.00;102129.41;5001348;28;20030;-76
2022/09/17 01:37:30;;;;;;;1.92;0.95;;;;;;;2.70;100.00;102145.47;4988025;28;20125;-76
2022/09/17 01:40:36;;;;;;;1.25;0.90;;;;;;;2.62;100.00;102137.94;4984690;28;20420;-76
2022/09/17 01:43:09;;;;;;;1.27;0.90;;;;;;;2.64;100.00;102138.69;4996223;28;20097;-76
2022/09/17 01:45:47;;;;;;;3.10;1.13;;;;;;;2.68;100.00;102133.22;4988501;28;20487;-76
2022/09/17 01:48:18;;;;;;;3.38;1.38;;;;;;;2.66;100.00;102127.13;5005493;28;20030;-76
2022/09/17 01:50:51;;;;;;;2.28;0.98;;;;;;;2.68;100.00;102135.88;5005382;28;20046;-76
2022/09/17 01:53:20;;;;;;;2.75;1.08;;;;;;;2.64;100.00;102130.72;5004833;28;20022;-76
2022/09/17 01:55:48;;;;;;;0.82;0.70;;;;;;;2.62;100.00;102137.09;5005008;28;20048;-76
2022/09/17 01:58:17;;;;;;;1.10;0.82;;;;;;;2.55;100.00;102128.63;4998374;28;20033;-76
2022/09/17 02:00:49;;;;;;;1.60;0.95;;;;;;;2.44;100.00;102111.63;5009821;28;20495;-76
2022/09/17 02:03:23;;;;;;;1.85;1.10;;;;;;;2.40;100.00;102116.25;4982796;28;20132;-76
2022/09/17 02:05:51;;;;;;;;;;;;;;;2.51;100.00;102139.50;5007416;28;20631;-76
2022/09/17 02:08:22;;;;;;;1.90;0.90;;;;;;;2.43;100.00;102129.31;5005275;28;19925;-76
2022/09/17 02:11:05;;;;;;;1.55;1.00;;;;;;;2.47;100.00;102124.72;5012800;28;20060;-76
2022/09/17 02:13:40;;;;;;;1.90;1.13;;;;;;;2.47;100.00;102120.25;5007040;28;20041;-76
2022/09/17 02:16:35;;;;;;;0.77;0.77;;;;;;;2.51;100.00;102131.53;4988924;28;20037;-76
2022/09/17 02:19:10;;;;;;;1.75;0.90;;;;;;;2.47;100.00;102127.38;4964385;28;20404;-77
2022/09/17 02:21:46;;;;;;;1.58;1.08;;;;;;;2.50;100.00;102125.38;4992110;28;20141;-76
2022/09/17 02:24:19;;;;;;;4.10;1.10;;;;;;;2.56;100.00;102127.66;4992955;28;20050;-76
2022/09/17 02:27:07;;;;;;;3.63;0.90;;;;;;;2.54;100.00;102118.06;4972117;28;20455;-76
2022/09/17 02:29:36;;;;;;;2.03;0.80;;;;;;;2.60;100.00;102123.91;5022601;28;20104;-77
2022/09/17 02:32:02;;;;;;;2.03;1.13;;;;;;;2.67;100.00;102112.91;4985738;28;20061;-76
2022/09/17 02:34:30;;;;;;;2.22;1.10;;;;;;;2.80;100.00;102119.19;4991220;28;20034;-76
2022/09/17 02:36:58;;;;;;;2.30;1.55;;;;;;;2.98;100.00;102117.22;4965389;28;20045;-76
2022/09/17 02:39:24;;;;;;;5.13;1.13;;;;;;;3.03;100.00;102113.34;5007461;28;20044;-76
2022/09/17 02:42:16;;;;;;;2.83;1.15;;;;;;;3.17;100.00;102111.63;5001668;28;20068;-75
2022/09/17 02:45:26;;;;;;;3.83;1.33;;;;;;;3.31;100.00;102103.69;4987336;28;20053;-76
2022/09/17 02:48:09;;;;;;;2.20;1.15;;;;;;;3.30;100.00;102108.13;4973869;28;20054;-76
2022/09/17 02:51:11;;;;;;;1.50;1.03;;;;;;;3.39;100.00;102119.16;5003402;28;20417;-76
2022/09/17 02:54:15;;;;;;;1.85;0.98;;;;;;;3.47;100.00;102120.38;4990868;28;20046;-76
2022/09/17 02:56:44;;;;;;;3.08;1.10;;;;;;;3.58;100.00;102122.34;5004268;28;20037;-76
2022/09/17 02:59:48;;;;;;;1.70;1.10;;;;;;;3.59;100.00;102121.41;5005803;28;20037;-76
2022/09/17 03:02:18;;;;;;;2.70;1.30;;;;;;;3.64;100.00;102121.09;5005877;28;20483;-74
2022/09/17 03:04:46;;;;;;;4.65;1.25;;;;;;;3.59;100.00;102112.56;4991661;28;20491;-75
2022/09/17 03:07:28;;;;;;;2.65;1.40;;;;;;;3.58;100.00;102111.72;4985457;28;20054;-77
2022/09/17 03:09:53;;;;;;;4.25;1.27;;;;;;;3.53;100.00;102113.81;4966924;28;20028;-76
2022/09/17 03:12:19;;;;;;;1.52;1.00;;;;;;;3.44;100.00;102109.06;4971189;28;20124;-75
2022/09/17 03:14:45;;;;;;;1.52;1.10;;;;;;;3.33;100.00;102112.38;4991125;28;20045;-75
2022/09/17 03:17:11;;;;;;;2.22;1.20;;;;;;;3.26;100.00;102111.09;4993318;28;20033;-76
2022/09/17 03:19:36;;;;;;;2.30;1.02;;;;;;;3.21;100.00;102118.50;5010112;28;20072;-77
2022/09/17 03:22:02;;;;;;;3.72;1.30;;;;;;;3.17;100.00;102117.81;4970664;28;20427;-76
2022/09/17 03:24:35;;;;;;;2.30;1.35;;;;;;;3.18;100.00;102118.69;4975026;28;20095;-76
2022/09/17 03:27:01;;;;;;;3.80;1.60;;;;;;;3.20;100.00;102117.63;4987026;28;20049;-77
2022/09/17 03:29:26;;;;;;;3.72;1.00;;;;;;;3.21;100.00;102123.81;4986194;28;20034;-77
2022/09/17 03:31:52;;;;;;;1.95;1.10;;;;;;;3.26;100.00;102121.72;4983942;28;20400;-77
2022/09/17 03:34:18;;;;;;;2.22;1.20;;;;;;;3.36;100.00;102114.00;5000690;28;20034;-77
2022/09/17 03:36:44;;;;;;;3.80;1.40;;;;;;;3.53;100.00;102119.97;4986564;28;20113;-77
2022/09/17 03:39:09;;;;;;;2.35;1.38;;;;;;;3.64;100.00;102113.13;5007709;28;20136;-76
2022/09/17 03:41:35;;;;;;;1.88;1.20;;;;;;;3.72;100.00;102117.00;5002743;28;20101;-76
2022/09/17 03:44:01;;;;;;;2.30;1.27;;;;;;;3.64;100.00;102105.16;4988073;28;20034;-77
2022/09/17 03:46:26;;;;;;;2.72;1.40;;;;;;;3.69;100.00;102116.34;4972229;28;20439;-76
2022/09/17 03:48:52;;;;;;;1.90;1.33;;;;;;;3.65;100.00;102128.13;4977196;28;20041;-76
2022/09/17 03:51:18;;;;;;;2.13;1.30;;;;;;;3.58;100.00;102126.84;4975114;28;20034;-76
2022/09/17 03:53:44;;;;;;;1.73;1.08;;;;;;;3.27;100.00;102084.38;4975825;28;20435;-76
2022/09/17 03:56:09;;;;;;;2.75;1.58;;;;;;;3.36;100.00;102116.66;4968510;28;20030;-76
2022/09/17 03:58:35;;;;;;;4.07;1.38;;;;;;;3.29;100.00;102116.22;5008774;28;20053;-76
2022/09/17 04:01:02;;;;;;;2.75;1.20;;;;;;;3.21;100.00;102118.50;4972992;28;20061;-76
2022/09/17 04:03:28;;;;;;;2.78;1.60;;;;;;;3.16;100.00;102120.56;4991458;28;20041;-76
2022/09/17 04:05:53;;;;;;;2.50;1.25;;;;;;;3.15;100.00;102125.03;4988163;28;20034;-76
2022/09/17 04:08:19;;;;;;;3.88;1.65;;;;;;;3.09;100.00;102118.28;4975722;28;20099;-76
2022/09/17 04:10:45;;;;;;;2.83;1.70;;;;;;;3.09;100.00;102118.28;4994370;28;20080;-76
2022/09/17 04:13:12;;;;;;;2.47;1.35;;;;;;;3.12;100.00;102113.72;5011949;28;20061;-76
2022/09/17 04:15:38;;;;;;;3.17;1.20;;;;;;;3.14;100.00;102107.38;5005020;28;20040;-76
2022/09/17 04:18:04;;;;;;;2.30;1.13;;;;;;;3.17;100.00;102107.16;5010989;28;20120;-75
2022/09/17 04:20:30;;;;;;;3.03;1.23;;;;;;;3.17;100.00;102119.59;4976724;28;20038;-76
2022/09/17 04:22:56;;;;;;;1.60;1.00;;;;;;;3.11;100.00;102112.03;4989309;28;20034;-76
2022/09/17 04:25:24;;;;;;;2.92;1.38;;;;;;;3.13;100.00;102115.44;4995919;28;20536;-76
2022/09/17 04:27:50;;;;;;;2.30;1.55;;;;;;;3.13;100.00;102110.13;5009012;28;20461;-77
2022/09/17 04:30:16;;;;;;;3.22;1.40;;;;;;;3.16;100.00;102112.59;4993829;28;20057;-76
2022/09/17 04:32:42;;;;;;;2.85;1.20;;;;;;;3.16;100.00;102115.25;4996337;28;20032;-76
2022/09/17 04:35:08;;;;;;;3.05;1.50;;;;;;;2.92;100.00;102099.88;5007796;28;20493;-76
2022/09/17 04:37:34;;;;;;;2.38;1.20;;;;;;;2.88;100.00;102118.72;4988131;28;20074;-76
2022/09/17 04:40:00;;;;;;;2.03;1.20;;;;;;;2.71;100.00;102109.97;5009164;28;20034;-76
2022/09/17 04:42:25;;;;;;;1.63;1.20;;;;;;;2.59;100.00;102108.03;4980776;28;20033;-76
2022/09/17 04:44:51;;;;;;;2.55;1.27;;;;;;;2.53;100.00;102114.56;4994086;28;20289;-76
2022/09/17 04:47:17;;;;;;;2.03;1.35;;;;;;;2.40;100.00;102122.41;4984552;28;20096;-76
2022/09/17 04:49:42;;;;;;;2.05;1.17;;;;;;;2.42;100.00;102119.66;4991853;28;20479;-76
2022/09/17 04:52:08;;;;;;;2.28;1.38;;;;;;;2.46;100.00;102120.31;5005842;28;20034;-76
2022/09/17 04:54:34;;;;;;;2.20;1.15;;;;;;;2.39;100.00;102127.81;4992714;28;20047;-76
2022/09/17 04:57:00;;;;;;;2.50;1.17;;;;;;;2.33;100.00;102129.03;5006375;28;20026;-76
2022/09/17 04:59:25;;;;;;;3.17;1.20;;;;;;;2.32;100.00;102129.94;4978871;28;20080;-76
2022/09/17 05:01:51;;;;;;;2.10;1.33;;;;;;;2.20;100.00;102134.19;5008833;28;20034;-76
2022/09/17 05:04:16;;;;;;;2.60;1.30;;;;;;;2.15;100.00;102138.03;5008758;28;20088;-76
2022/09/17 05:06:42;;;;;;;4.13;1.45;;;;;;;2.18;100.00;102135.22;4989494;28;20403;-76
2022/09/17 05:09:08;;;;;;;2.33;1.20;;;;;;;2.31;100.00;102133.56;4992740;28;20121;-76
2022/09/17 05:11:34;;;;;;;3.10;1.17;;;;;;;2.38;100.00;102134.94;4990941;28;20215;-76
2022/09/17 05:14:00;;;;;;;4.45;1.17;;;;;;;2.39;100.00;102131.31;4978157;28;20442;-76
2022/09/17 05:16:25;;;;;;;2.55;1.15;;;;;;;2.43;100.00;102131.97;4971561;28;20026;-76
2022/09/17 05:18:51;;;;;;;3.05;1.27;;;;;;;2.36;100.00;102131.50;5007592;28;20073;-76
2022/09/17 05:21:17;;;;;;;2.80;1.67;;;;;;;2.27;100.00;102144.44;4993484;28;20136;-76
2022/09/17 05:23:43;;;;;;;3.10;1.33;;;;;;;2.10;100.00;102135.66;4983788;28;20124;-75
2022/09/17 05:26:09;;;;;;;4.20;1.38;;;;;;;1.97;100.00;102139.94;4978757;28;20046;-76
2022/09/17 05:28:34;;;;;;;1.65;1.05;;;;;;;1.89;100.00;102119.13;4988811;28;20473;-76
2022/09/17 05:31:01;;;;;;;2.25;1.10;;;;;;;1.97;100.00;102113.41;4980940;28;20042;-76
2022/09/17 05:33:26;;;;;;;5.68;1.20;;;;;;;2.12;100.00;102123.16;4989783;28;20042;-76
2022/09/17 05:35:52;;;;;;;2.85;1.10;;;;;;;2.16;100.00;102127.31;5009051;28;20053;-77
2022/09/17 05:38:18;;;;;;;2.42;1.30;;;;;;;2.07;100.00;102130.50;5008497;28;20033;-76
2022/09/17 05:40:44;;;;;;;1.40;1.00;;;;;;;1.92;100.00;102124.25;4974759;28;20388;-76
2022/09/17 05:43:10;;;;;;;1.15;0.90;;;;;;;1.93;100.00;102127.78;4990837;28;20042;-75
2022/09/17 05:45:37;;;;;;;2.20;1.13;;;;;;;1.80;100.00;102106.41;4978756;28;20117;-76
2022/09/17 05:48:05;;;;;;;1.42;0.95;;;;;;;1.89;100.00;102119.13;4986341;28;20040;-76
2022/09/17 05:50:31;;;;;;;1.50;1.10;;;;;;;1.95;100.00;102123.25;4995350;28;20546;-76
2022/09/17 05:53:02;;;;;;;2.17;1.10;;;;;;;1.87;100.00;102115.72;4989732;28;20096;-76
2022/09/17 05:55:28;;;;;;;3.33;1.13;;;;;;;1.92;100.00;102115.47;5001310;28;20771;-76
2022/09/17 05:57:54;;;;;;;2.35;1.10;;;;;;;1.92;100.00;102123.41;5005823;28;20026;-76
2022/09/17 06:00:20;;;;;;;2.15;1.30;;;;;;;1.85;100.00;102135.31;4983869;28;20046;-76
2022/09/17 06:02:45;;;;;;;1.70;1.15;;;;;;;1.78;100.00;102131.31;4974578;28;20458;-76
2022/09/17 06:05:11;;;;;;;1.77;1.00;;;;;;;1.80;100.00;102132.94;5006815;28;20041;-77
2022/09/17 06:07:37;;;;;;;2.28;1.30;;;;;;;1.83;100.00;102131.91;5006898;28;20035;-75
2022/09/17 06:10:05;;;;;;;4.20;1.33;;;;;;;1.93;100.00;102133.97;4975786;28;20125;-76
2022/09/17 06:12:30;;;;;;;4.35;1.30;;;;;;;1.98;100.00;102128.38;4989604;28;20114;-76
2022/09/17 06:14:56;;;;;;;2.30;1.23;;;;;;;2.02;100.00;102132.56;5006925;28;20038;-76
2022/09/17 06:17:22;;;;;;;2.30;1.40;;;;;;;2.09;100.00;102133.06;4992542;28;20092;-76
2022/09/17 06:19:47;;;;;;;4.20;1.48;;;;;;;2.18;100.00;102138.72;5004492;28;20100;-76
2022/09/17 06:22:13;;;;;;;2.08;1.30;;;;;;;2.26;100.00;102135.63;5008481;28;20076;-76
2022/09/17 06:24:39;;;;;;;2.72;1.05;;;;;;;2.31;100.00;102135.38;4974751;28;20038;-76
2022/09/17 06:27:04;;;;;;;2.42;1.25;;;;;;;2.35;100.00;102136.88;5004200;28;20567;-76
2022/09/17 06:29:30;;;;;;;2.08;1.20;;;;;;;2.47;100.00;102138.84;5000748;28;20022;-77
2022/09/17 06:31:56;;;;;;;1.95;1.30;;;;;;;2.54;100.00;102141.97;5000719;28;20022;-76
2022/09/17 06:34:21;;;;;;;2.63;1.40;;;;;;;2.68;100.00;102141.19;4975266;28;20038;-76
2022/09/17 06:36:50;;;;;;;2.38;1.40;;;;;;;2.88;100.00;102140.84;5006665;28;20129;-76
2022/09/17 06:39:16;;;;;;;2.83;1.48;;;;;;;3.04;100.00;102144.31;4992610;28;20077;-76
2022/09/17 06:41:42;;;;;;;3.55;1.25;;;;;;;3.24;100.00;102137.75;4986012;28;20062;-76
2022/09/17 06:44:07;;;;;;;3.88;1.38;;;;;;;3.61;100.00;102138.13;5020558;28;20043;-76
2022/09/17 06:46:33;;;;;;;3.55;1.60;;;;;;;3.93;100.00;102143.19;4975063;28;20041;-76
2022/09/17 06:48:59;;;;;;;3.47;1.50;;;;;;;4.19;100.00;102145.00;5010380;28;20034;-76
2022/09/17 06:51:25;;;;;;;3.03;1.48;;;;;;;4.36;100.00;102145.72;5008109;28;20038;-76
2022/09/17 06:53:50;;;;;;;3.83;1.55;;;;;;;4.46;100.00;102148.63;4979687;28;20533;-77
2022/09/17 06:56:16;;;;;;;3.30;1.60;;;;;;;4.53;100.00;102153.44;4998019;28;20045;-77
2022/09/17 06:58:43;;;;;;;3.22;1.77;;;;;;;4.54;100.00;102141.81;4988881;28;20104;-76
2022/09/17 07:01:09;;;;;;;4.25;1.80;;;;;;;4.57;100.00;102148.75;5006792;28;20042;-76
2022/09/17 07:03:35;;;;;;;2.03;1.40;;;;;;;4.50;100.00;102128.81;4965296;28;20034;-75
2022/09/17 07:06:01;;;;;;;3.38;1.70;;;;;;;4.72;100.00;102153.06;5003853;28;20032;-75
2022/09/17 07:08:27;;;;;;;2.25;1.38;;;;;;;4.84;100.00;102157.56;4984679;28;20059;-75
2022/09/17 07:10:57;;;;;;;4.25;1.77;;;;;;;5.02;100.00;102160.78;4988826;28;20399;-76
2022/09/17 07:13:24;;;;;;;3.25;1.65;;;;;;;5.19;100.00;102156.13;4994555;28;20030;-75
2022/09/17 07:16:09;;;;;;;3.20;1.90;;;;;;;5.12;100.00;102128.16;5009661;28;20044;-75
2022/09/17 07:18:35;;;;;;;3.78;1.73;;;;;;;5.38;100.00;102155.69;5019509;28;20032;-75
2022/09/17 07:21:05;;;;;;;3.25;1.60;;;;;;;5.51;100.00;102160.03;5004145;28;20262;-75
2022/09/17 07:23:32;;;;;;;4.15;1.90;;;;;;;5.61;100.00;102160.25;4987116;28;20157;-76
2022/09/17 07:26:00;;;;;;;5.43;1.65;;;;;;;5.77;100.00;102161.78;5001073;28;20034;-76
2022/09/17 07:28:26;;;;;;;6.25;2.60;;;;;;;5.78;100.00;102158.19;5001720;28;20029;-74
2022/09/17 07:30:52;;;;;;;3.78;1.73;;;;;;;5.79;100.00;102159.88;4991703;28;20034;-76
2022/09/17 07:33:23;;;;;;;4.32;2.10;;;;;;;5.83;100.00;102172.03;4987108;28;20125;-77
2022/09/17 07:36:00;;;;;;;5.55;2.10;;;;;;;6.26;100.00;102174.28;5000963;28;20025;-75
2022/09/17 07:38:27;;;;;;;5.38;2.40;;;;;;;7.60;100.00;102165.78;4998270;28;20033;-78
2022/09/17 07:40:57;;;;;;;4.13;2.33;;;;;;;9.23;100.00;102163.91;5000376;28;20026;-75
2022/09/17 07:43:24;;;;;;;6.68;2.65;;;;;;;10.77;100.00;102169.00;4989442;28;20049;-75
2022/09/17 07:45:50;;;;;;;4.43;2.50;;;;;;;11.88;100.00;102162.91;5002735;28;20034;-75
2022/09/17 07:48:15;;;;;;;5.28;2.58;;;;;;;13.19;92.84;102165.97;4971846;28;20349;-75
2022/09/17 07:50:41;;;;;;;4.38;2.65;;;;;;;14.15;89.44;102163.03;4971092;28;20048;-76
2022/09/17 07:53:07;;;;;;;4.18;2.05;;;;;;;14.77;83.78;102162.69;4972780;28;20033;-75
2022/09/17 07:55:32;;;;;;;3.33;1.67;;;;;;;15.58;82.73;102171.66;4987425;28;20038;-76
2022/09/17 07:57:58;;;;;;;3.15;1.63;;;;;;;16.24;78.98;102159.53;4975361;28;20124;-75
2022/09/17 08:00:24;;;;;;;4.65;2.10;;;;;;;16.24;78.15;102164.94;5009479;28;20412;-76
2022/09/17 08:02:54;;;;;;;6.03;1.90;;;;;;;16.38;77.70;102157.94;5006933;28;20069;-75
2022/09/17 08:05:20;;;;;;;7.85;2.22;;;;;;;16.62;76.72;102161.50;4989896;28;20037;-76
2022/09/17 08:07:52;;;;;;;2.95;1.83;;;;;;;16.63;75.24;102155.03;5003963;28;20030;-75
2022/09/17 08:10:20;;;;;;;5.65;2.10;;;;;;;16.61;76.71;102133.47;4981452;28;20026;-75
2022/09/17 08:12:50;;;;;;;5.20;2.20;;;;;;;17.77;74.96;102169.38;4988769;28;20123;-75
2022/09/17 08:15:16;;;;;;;5.82;2.28;;;;;;;18.66;72.30;102160.97;5002519;28;20045;-75
2022/09/17 08:17:43;;;;;;;6.03;2.40;;;;;;;19.04;67.31;102163.44;4978132;28;20042;-75
2022/09/17 08:20:09;;;;;;;7.80;2.63;;;;;;;18.78;67.74;102174.94;5025522;28;20046;-76
2022/09/17 08:22:35;;;;;;;4.97;2.20;;;;;;;18.42;70.18;102178.56;5005078;28;20124;-76
2022/09/17 08:25:03;;;;;;;4.85;2.67;;;;;;;19.25;67.22;102179.72;4978166;28;20030;-76
2022/09/17 08:27:32;;;;;;;4.65;2.35;;;;;;;19.91;66.22;102183.94;4995381;28;20068;-76
2022/09/17 08:29:57;;;;;;;6.32;2.50;;;;;;;20.27;64.31;102188.25;4970711;28;20092;-77
2022/09/17 08:32:24;;;;;;;3.35;2.25;;;;;;;20.30;60.02;102175.03;5009568;28;20034;-77
2022/09/17 08:34:49;;;;;;;5.63;2.70;;;;;;;19.33;63.36;102185.03;5010651;28;20117;-76
2022/09/17 08:37:18;;;;;;;5.38;2.40;;;;;;;19.02;66.78;102188.16;4979857;28;20117;-76
2022/09/17 08:39:47;;;;;;;5.38;1.90;;;;;;;19.17;66.79;102182.63;5003438;28;20038;-76
2022/09/17 08:42:24;;;;;;;5.55;2.70;;;;;;;18.34;64.55;102187.69;4987511;28;20030;-76
2022/09/17 08:44:51;;;;;;;3.35;2.50;;;;;;;18.01;69.99;102184.56;4992245;28;20049;-76
2022/09/17 08:47:22;;;;;;;5.53;2.35;;;;;;;18.61;67.89;102194.25;5012381;28;20033;-76
2022/09/17 08:49:51;;;;;;;3.22;2.30;;;;;;;19.32;66.08;102193.44;4992108;28;20034;-77
2022/09/17 08:52:58;;;;;;;3.75;2.28;;;;;;;19.97;64.30;102183.09;5011146;28;20073;-77
2022/09/17 08:55:39;;;;;;;7.28;2.53;;;;;;;19.96;64.00;102178.72;5001850;28;20485;-83
2022/09/17 08:58:29;;;;;;;5.88;2.95;;;;;;;20.28;62.51;102187.22;4978107;28;20045;-83
2022/09/17 09:01:13;;;;;;;4.80;2.83;;;;;;;20.31;60.39;102189.53;4989736;28;20069;-82
2022/09/17 09:03:58;;;;;;;6.40;2.88;;;;;;;20.60;57.31;102188.38;5004870;28;20041;-83
2022/09/17 09:06:29;;;;;;;4.20;2.42;;;;;;;21.44;57.56;102189.66;5028514;28;20460;-84
2022/09/17 09:09:05;;;;;;;5.18;2.50;;;;;;;21.38;57.17;102174.09;5008013;28;20499;-82
2022/09/17 09:11:31;;;;;;;4.68;2.40;;;;;;;22.75;53.94;102194.75;5007008;28;20030;-76
2022/09/17 09:14:09;;;;;;;6.78;3.00;;;;;;;23.58;50.55;102190.91;5004898;28;20049;-80
2022/09/17 09:16:38;;;;;;;6.13;2.65;;;;;;;24.16;48.44;102195.09;4972988;28;20037;-79
2022/09/17 09:19:14;;;;;;;4.95;2.63;;;;;;;24.17;48.97;102190.44;4973604;28;20089;-78
2022/09/17 09:22:01;;;;;;;7.07;2.33;;;;;;;24.35;48.51;102195.88;5004950;28;20041;-78
2022/09/17 09:24:37;;;;;;;3.80;2.13;;;;;;;24.54;46.96;102194.78;4973178;28;20073;-78
2022/09/17 09:27:16;;;;;;;4.93;2.50;;;;;;;24.27;47.47;102190.72;5008054;28;20050;-79
2022/09/17 09:30:01;;;;;;;8.75;2.40;;;;;;;23.22;47.71;102198.00;4988952;28;20459;-78
2022/09/17 09:32:55;;;;;;;2.35;1.90;;;;;;;23.04;47.99;102190.56;4999939;28;20049;-78
2022/09/17 09:35:28;;;;;;;5.45;2.30;;;;;;;23.53;47.00;102195.41;5003500;28;20120;-78
2022/09/17 09:38:39;;;;;;;4.50;1.92;;;;;;;24.96;46.43;102192.00;4989223;28;20104;-78
2022/09/17 09:41:18;;;;;;;4.70;2.25;;;;;;;26.30;44.97;102201.31;4968840;28;20051;-79
2022/09/17 09:43:52;;;;;;;3.03;1.70;;;;;;;27.25;40.31;102190.56;4952517;28;20038;-78
2022/09/17 09:46:34;;;;;;;2.97;1.80;;;;;;;26.36;39.64;102182.94;4979003;28;20477;-78
2022/09/17 09:49:28;;;;;;;2.47;1.50;;;;;;;26.20;40.22;102193.69;4975316;28;20610;-78
2022/09/17 09:52:33;;;;;;;4.43;1.88;;;;;;;26.09;39.38;102194.56;5023955;28;20037;-78
2022/09/17 09:55:36;;;;;;;2.60;1.50;;;;;;;25.74;39.56;102191.88;5020927;28;20365;-76
2022/09/17 09:58:15;;;;;;;2.03;1.40;;;;;;;25.19;38.32;102185.72;5009887;28;20033;-76
2022/09/17 10:00:44;;;;;;;4.13;1.70;;;;;;;24.29;40.28;102185.81;4989043;28;20037;-76
2022/09/17 10:03:17;;;;;;;3.83;1.80;;;;;;;24.00;41.05;102184.72;5006337;28;20432;-79
2022/09/17 10:06:06;;;;;;;6.32;1.90;;;;;;;24.54;41.58;102166.44;4990274;28;20038;-76
2022/09/17 10:08:37;;;;;;;3.22;1.60;;;;;;;25.80;38.31;102180.72;4987355;28;20029;-77
2022/09/17 10:11:08;;;;;;;5.88;1.77;;;;;;;26.26;37.39;102180.84;5008576;28;20466;-78
2022/09/17 10:13:35;;;;;;;1.95;1.27;;;;;;;25.76;36.21;102179.53;5023339;28;20034;-76
2022/09/17 10:16:24;;;;;;;3.08;1.38;;;;;;;24.34;38.13;102178.56;4978495;28;20041;-78
2022/09/17 10:19:01;;;;;;;2.90;1.55;;;;;;;24.30;39.51;102166.34;4992111;28;20037;-79
2022/09/17 10:21:41;;;;;;;4.60;1.67;;;;;;;24.91;38.96;102161.59;5010272;28;20481;-79
2022/09/17 10:24:28;;;;;;;5.53;1.80;;;;;;;25.48;37.04;102171.19;4973798;28;20072;-79
2022/09/17 10:27:01;;;;;;;4.45;2.03;;;;;;;25.85;35.78;102169.00;4988671;28;20431;-80
2022/09/17 10:29:26;;;;;;;2.72;1.60;;;;;;;25.52;35.22;102166.88;5000443;28;20030;-81
2022/09/17 10:31:54;;;;;;;3.03;1.50;;;;;;;25.61;34.71;102166.25;4973830;28;20145;-80
2022/09/17 10:34:28;;;;;;;3.58;1.30;;;;;;;26.09;33.53;102162.34;4999441;28;20046;-78
2022/09/17 10:36:55;;;;;;;3.80;1.42;;;;;;;26.66;33.78;102166.16;4977083;28;20034;-78
2022/09/17 10:39:23;;;;;;;4.53;1.95;;;;;;;27.39;30.13;102170.63;5011454;28;20030;-79
2022/09/17 10:42:03;;;;;;;5.70;1.40;;;;;;;27.14;29.11;102165.53;4987681;28;20027;-78
2022/09/17 10:44:32;;;;;;;3.17;1.48;;;;;;;26.76;30.62;102166.31;5005020;28;20129;-78
2022/09/17 10:47:04;;;;;;;2.10;1.10;;;;;;;26.61;30.06;102166.06;5008489;28;20030;-79
2022/09/17 10:49:48;;;;;;;4.15;1.30;;;;;;;25.84;30.63;102168.16;4991662;28;20113;-78
2022/09/17 10:52:28;;;;;;;2.00;1.05;;;;;;;26.00;30.10;102157.44;4976612;28;20133;-80
2022/09/17 10:55:15;;;;;;;3.67;1.25;;;;;;;25.18;31.83;102162.00;4985974;28;20640;-79
2022/09/17 10:58:06;;;;;;;5.65;1.20;;;;;;;24.83;32.23;102159.22;5001962;28;20039;-79
2022/09/17 11:00:42;;;;;;;3.38;1.40;;;;;;;25.82;30.82;102144.66;5009104;28;20041;-80
2022/09/17 11:03:41;;;;;;;2.92;1.20;;;;;;;26.25;30.58;102149.69;5024712;28;20484;-79
2022/09/17 11:06:30;;;;;;;1.50;1.00;;;;;;;26.85;30.02;102155.69;4988923;28;20032;-78
2022/09/17 11:09:08;;;;;;;2.45;1.30;;;;;;;27.61;27.21;102145.78;5000046;28;20037;-79
2022/09/17 11:12:11;;;;;;;3.25;1.10;;;;;;;27.82;26.68;102148.84;4993988;28;20041;-78
2022/09/17 11:14:52;;;;;;;2.05;1.25;;;;;;;28.24;26.43;102137.97;5021581;28;20065;-79
2022/09/17 11:17:38;;;;;;;2.83;1.10;;;;;;;27.41;27.92;102142.75;5003075;28;20037;-78
2022/09/17 11:20:16;;;;;;;6.28;2.78;;;;;;;27.07;28.97;102144.72;5005996;28;20041;-79
2022/09/17 11:22:57;;;;;;;1.42;1.00;;;;;;;27.46;27.41;102145.56;4993767;28;20041;-79
2022/09/17 11:25:26;;;;;;;2.22;1.00;;;;;;;28.16;27.38;102137.63;5007390;28;20040;-77
2022/09/17 11:27:52;;;;;;;1.50;1.20;;;;;;;28.94;26.07;102141.63;4989764;28;20080;-79
2022/09/17 11:30:22;;;;;;;1.20;1.10;;;;;;;28.76;26.00;102116.28;5005237;28;20432;-80
2022/09/17 11:32:54;;;;;;;1.83;0.90;;;;;;;28.43;26.26;102132.06;5006420;28;20025;-78
2022/09/17 11:35:21;;;;;;;2.45;1.15;;;;;;;27.85;27.06;102128.97;4997748;28;20045;-78
2022/09/17 11:37:53;;;;;;;2.95;1.17;;;;;;;27.60;27.61;102132.22;5006428;28;20056;-79
2022/09/17 11:40:34;;;;;;;2.45;1.30;;;;;;;27.04;27.71;102118.44;5006867;28;20125;-78
2022/09/17 11:43:04;;;;;;;3.00;1.10;;;;;;;27.35;28.45;102125.28;4999589;28;20052;-80
2022/09/17 11:45:37;;;;;;;1.67;1.10;;;;;;;27.09;28.77;102126.81;4992652;28;20496;-78
2022/09/17 11:48:12;;;;;;;;;;;;;;;29.66;25.09;102127.38;4983447;28;20038;-79
2022/09/17 11:50:48;;;;;;;4.25;1.20;;;;;;;31.01;23.10;102123.41;4993684;28;19924;-78